createdAt,value
2023-01-19T00:01:11.246Z,10.25
2023-01-19T00:06:07.584Z,10.24
2023-01-19T00:11:03.794Z,10.33
2023-01-19T00:16:00.113Z,10.36
2023-01-19T00:20:56.301Z,10.25
2023-01-19T00:25:52.540Z,10.09
2023-01-19T00:30:49.770Z,10.17
2023-01-19T00:35:51.061Z,9.94
2023-01-19T00:40:47.291Z,9.96
2023-01-19T00:45:44.619Z,10.04
2023-01-19T00:50:42.786Z,10.04
2023-01-19T00:55:40.053Z,10.08
2023-01-19T01:00:36.289Z,10.03
2023-01-19T01:05:32.639Z,10.06
2023-01-19T01:10:28.885Z,10.08
2023-01-19T01:15:25.069Z,10.17
2023-01-19T01:20:22.366Z,10.11
2023-01-19T01:25:20.667Z,9.86
2023-01-19T01:30:16.872Z,9.92
2023-01-19T01:35:13.133Z,9.83
2023-01-19T01:40:11.405Z,9.32
2023-01-19T01:45:20.592Z,9.71
2023-01-19T01:55:23.093Z,9.69
2023-01-19T02:00:20.364Z,9.81
2023-01-19T02:05:20.599Z,9.69
2023-01-19T02:10:17.878Z,9.81
2023-01-19T02:15:15.148Z,9.85
2023-01-19T02:20:13.402Z,9.85
2023-01-19T02:25:09.674Z,9.57
2023-01-19T02:30:07.918Z,9.72
2023-01-19T02:35:04.123Z,9.21
2023-01-19T02:40:03.379Z,9.03
2023-01-19T02:45:01.696Z,9.1
2023-01-19T02:50:00.954Z,8.96
2023-01-19T02:55:12.131Z,9.36
2023-01-19T03:00:20.346Z,9.58
2023-01-19T03:05:29.563Z,9.67
2023-01-19T03:10:33.844Z,9.08
2023-01-19T03:15:38.115Z,9.03
2023-01-19T03:20:37.336Z,8.96
2023-01-19T03:25:36.587Z,8.94
2023-01-19T03:30:38.904Z,9.13
2023-01-19T03:35:39.095Z,9.27
2023-01-19T03:40:36.358Z,9.17
2023-01-19T03:45:33.607Z,9
2023-01-19T03:50:30.848Z,9.48
2023-01-19T03:55:27.075Z,9.76
2023-01-19T04:00:23.358Z,9.78
2023-01-19T04:05:19.622Z,9.27
2023-01-19T04:10:16.897Z,9.52
2023-01-19T04:15:13.158Z,9.4
2023-01-19T04:20:09.420Z,9.54
2023-01-19T04:25:06.659Z,9.72
2023-01-19T04:30:02.882Z,9.35
2023-01-19T04:34:59.135Z,9.22
2023-01-19T04:39:55.445Z,8.79
2023-01-19T04:44:51.725Z,8.68
2023-01-19T04:49:48.008Z,8.74
2023-01-19T04:54:44.241Z,8.88
2023-01-19T04:59:40.480Z,9.22
2023-01-19T05:04:36.764Z,9.2
2023-01-19T05:09:33.023Z,9.2
2023-01-19T05:14:29.238Z,9.2
2023-01-19T05:19:25.521Z,9.19
2023-01-19T05:24:20.758Z,9.22
2023-01-19T05:29:17.046Z,9.28
2023-01-19T05:34:13.306Z,9.5
2023-01-19T05:39:09.530Z,8.92
2023-01-19T05:44:05.814Z,9.09
2023-01-19T05:49:02.089Z,9.16
2023-01-19T05:53:58.348Z,8.78
2023-01-19T05:58:54.607Z,8.29
2023-01-19T06:03:50.844Z,8.59
2023-01-19T06:08:47.117Z,8.98
2023-01-19T06:13:43.411Z,8.96
2023-01-19T06:18:39.598Z,9.08
2023-01-19T06:23:35.877Z,8.92
2023-01-19T06:28:32.169Z,8.99
2023-01-19T06:33:28.400Z,8.44
2023-01-19T06:38:23.686Z,8.75
2023-01-19T06:43:19.908Z,8.98
2023-01-19T06:48:18.222Z,8.74
2023-01-19T06:53:14.454Z,8.69
2023-01-19T06:58:10.689Z,8.09
2023-01-19T07:03:07.058Z,8.22
2023-01-19T07:08:03.263Z,7.85
2023-01-19T07:12:59.962Z,7.83
2023-01-19T07:17:57.720Z,7.7
2023-01-19T07:22:56.000Z,7.9
2023-01-19T07:27:52.259Z,8.08
2023-01-19T07:32:48.544Z,8.05
2023-01-19T07:37:44.766Z,7.91
2023-01-19T07:42:46.035Z,7.97
2023-01-19T07:52:47.547Z,8.04
2023-01-19T07:57:43.791Z,7.91
2023-01-19T08:02:41.034Z,7.91
2023-01-19T08:07:37.283Z,8.36
2023-01-19T08:12:33.556Z,8.87
2023-01-19T08:17:30.789Z,10.17
2023-01-19T08:22:27.065Z,10.76
2023-01-19T08:27:28.284Z,10.11
2023-01-19T08:32:24.640Z,9.95
2023-01-19T08:37:20.858Z,10.19
2023-01-19T08:41:48.126Z,10.27
2023-01-19T08:46:44.547Z,10.03
2023-01-19T08:51:40.699Z,9.78
2023-01-19T08:56:36.990Z,9.85
2023-01-19T09:01:33.324Z,9.89
2023-01-19T09:06:30.252Z,10.28
2023-01-19T09:11:26.723Z,10.19
2023-01-19T09:16:23.012Z,10.06
2023-01-19T09:21:20.260Z,9.79
2023-01-19T09:26:17.497Z,10.14
2023-01-19T09:31:13.970Z,10.63
2023-01-19T09:36:10.189Z,10.79
2023-01-19T09:41:13.251Z,10.69
2023-01-19T09:46:13.563Z,10.68
2023-01-19T09:51:21.739Z,10.87
2023-01-19T09:56:18.999Z,10.57
2023-01-19T10:01:23.298Z,10.82
2023-01-19T10:05:30.633Z,10.75
2023-01-19T10:10:34.891Z,10.12
2023-01-19T10:15:42.088Z,10.28
2023-01-19T10:20:45.308Z,10.47
2023-01-19T10:25:47.751Z,11.32
2023-01-19T10:30:50.062Z,12.49
2023-01-19T10:35:47.114Z,12.67
2023-01-19T10:40:54.291Z,12.59
2023-01-19T10:45:51.680Z,12.48
2023-01-19T10:51:02.301Z,12.52
2023-01-19T10:56:10.062Z,11.92
2023-01-19T11:01:13.374Z,12.12
2023-01-19T11:06:20.531Z,11.08
2023-01-19T11:11:22.916Z,11.14
2023-01-19T11:16:25.084Z,10.75
2023-01-19T11:21:25.832Z,10.22
2023-01-19T11:31:31.810Z,9.26
2023-01-19T11:36:35.968Z,9.26
2023-01-19T11:41:34.273Z,8.69
2023-01-19T11:46:33.591Z,7.92
2023-01-19T11:51:35.704Z,7.34
2023-01-19T11:56:34.950Z,6.87
2023-01-19T12:01:34.284Z,6.23
2023-01-19T12:06:33.479Z,6.08
2023-01-19T12:11:34.708Z,5.75
2023-01-19T12:16:33.107Z,5.55
2023-01-19T12:21:29.270Z,5.52
2023-01-19T12:26:34.480Z,5.61
2023-01-19T12:31:31.889Z,6.06
2023-01-19T12:36:35.964Z,6.66
2023-01-19T12:41:43.197Z,6.33
2023-01-19T12:46:45.434Z,6.22
2023-01-19T12:51:48.207Z,6.25
2023-01-19T12:56:43.935Z,6.12
2023-01-19T13:01:52.315Z,5.84
2023-01-19T13:06:58.478Z,5.69
2023-01-19T13:12:04.670Z,5.65
2023-01-19T13:17:21.910Z,5.65
2023-01-19T13:27:25.371Z,5.86
2023-01-19T13:32:21.672Z,5.59
2023-01-19T13:37:19.835Z,5.61
2023-01-19T13:42:18.141Z,5.3
2023-01-19T13:47:18.533Z,5.29
2023-01-19T13:52:15.633Z,5.16
2023-01-19T13:57:16.911Z,4.97
2023-01-19T14:02:13.413Z,4.81
2023-01-19T14:07:13.476Z,4.88
2023-01-19T14:12:11.638Z,4.78
2023-01-19T14:17:11.884Z,4.89
2023-01-19T14:22:10.308Z,4.73
2023-01-19T14:27:18.397Z,4.52
2023-01-19T14:32:16.632Z,4.32
2023-01-19T14:37:15.866Z,4.22
2023-01-19T14:42:17.603Z,3.98
2023-01-19T14:52:24.637Z,3.93
2023-01-19T14:57:19.864Z,3.87
2023-01-19T15:02:16.220Z,3.94
2023-01-19T15:07:16.381Z,3.94
2023-01-19T15:12:12.649Z,3.76
2023-01-19T15:17:13.906Z,3.72
2023-01-19T15:19:20.620Z,3.69
2023-01-19T15:24:18.013Z,3.92
2023-01-19T15:29:16.077Z,3.78
2023-01-19T15:34:12.354Z,3.91
2023-01-19T15:39:08.611Z,3.81
2023-01-19T15:44:04.856Z,3.84
2023-01-19T15:49:01.120Z,3.81
2023-01-19T15:53:57.396Z,4.07
2023-01-19T15:58:53.635Z,3.96
2023-01-19T16:03:49.916Z,3.9
2023-01-19T16:08:46.154Z,4.07
2023-01-19T16:13:44.405Z,4
2023-01-19T16:18:40.676Z,3.94
2023-01-19T16:23:36.943Z,3.9
2023-01-19T16:28:33.189Z,3.9
2023-01-19T16:33:29.449Z,3.83
2023-01-19T16:38:25.710Z,4.1
2023-01-19T16:43:21.981Z,4.02
2023-01-19T16:48:18.253Z,3.97
2023-01-19T16:53:14.476Z,4.03
2023-01-19T16:58:10.785Z,4.04
2023-01-19T17:03:07.100Z,4.13
2023-01-19T17:08:03.294Z,4.35
2023-01-19T17:12:59.572Z,4.38
2023-01-19T17:17:55.791Z,4.32
2023-01-19T17:22:52.106Z,4.4
2023-01-19T17:27:48.324Z,4.34
2023-01-19T17:32:44.597Z,4.36
2023-01-19T17:37:53.775Z,4.36
2023-01-19T17:42:50.057Z,4.71
2023-01-19T17:47:47.327Z,4.56
2023-01-19T17:52:51.744Z,4.64
2023-01-19T17:57:47.835Z,4.45
2023-01-19T18:02:53.079Z,4.49
2023-01-19T18:07:53.723Z,4.19
2023-01-19T18:12:58.581Z,4.12
2023-01-19T18:17:58.797Z,4.12
2023-01-19T18:23:00.452Z,4.14
2023-01-19T18:27:57.303Z,4.21
2023-01-19T18:33:02.977Z,4.19
2023-01-19T18:38:06.726Z,4.22
2023-01-19T18:43:08.028Z,4.16
2023-01-19T18:48:09.290Z,4.25
2023-01-19T18:53:05.525Z,4.36
2023-01-19T18:58:05.774Z,4.06
2023-01-19T19:03:06.029Z,4
2023-01-19T19:08:10.267Z,3.85
2023-01-19T19:13:11.543Z,3.86
2023-01-19T19:18:12.138Z,3.93
2023-01-19T19:23:08.029Z,4.07
2023-01-19T19:28:11.649Z,3.97
2023-01-19T19:33:11.538Z,4.01
2023-01-19T19:38:16.271Z,3.92
2023-01-19T19:43:17.429Z,3.9
2023-01-19T19:48:14.263Z,4.2
2023-01-19T19:53:23.504Z,3.74
2023-01-19T19:58:19.736Z,3.57
2023-01-19T20:03:16.045Z,3.41
2023-01-19T20:08:21.250Z,3.73
2023-01-19T20:13:22.512Z,4.06
2023-01-19T20:18:27.744Z,3.4
2023-01-19T20:23:33.968Z,3.42
2023-01-19T20:28:30.237Z,3.94
2023-01-19T20:33:39.508Z,3.99
2023-01-19T20:38:44.756Z,4.59
2023-01-19T20:43:49.673Z,4.99
2023-01-19T20:48:54.171Z,5.22
2023-01-19T20:54:00.402Z,5.14
2023-01-19T20:59:11.601Z,5.07
2023-01-19T21:04:12.908Z,4.99
2023-01-19T21:09:23.177Z,5.14
2023-01-19T21:14:24.438Z,4.87
2023-01-19T21:19:29.637Z,4.99
2023-01-19T21:24:27.840Z,4.96
2023-01-19T21:29:24.127Z,4.92
2023-01-19T21:34:25.082Z,4.49
2023-01-19T21:39:26.611Z,3.64
2023-01-19T21:44:27.861Z,4.02
2023-01-19T21:49:29.053Z,4.23
2023-01-19T21:54:30.369Z,4.85
2023-01-19T21:59:35.585Z,5.63
2023-01-19T22:04:45.301Z,5.62
2023-01-19T22:09:42.075Z,6.02
2023-01-19T22:19:48.507Z,6.89
2023-01-19T22:24:52.806Z,7.02
2023-01-19T22:29:57.030Z,6.66
2023-01-19T22:34:58.258Z,5.96
2023-01-19T22:40:03.494Z,6.59
2023-01-19T22:45:05.133Z,6.91
2023-01-19T22:50:06.517Z,7.85
2023-01-19T22:55:12.200Z,6.39
2023-01-19T23:00:20.490Z,6.56
2023-01-19T23:05:17.809Z,6.7
2023-01-19T23:10:23.944Z,7.07
2023-01-19T23:15:24.297Z,7
2023-01-19T23:20:21.469Z,6.49
2023-01-19T23:25:17.711Z,6.82
2023-01-19T23:30:17.972Z,6.83
2023-01-19T23:35:22.201Z,5.9
2023-01-19T23:40:30.904Z,6.77
2023-01-19T23:50:32.952Z,7.04
2023-01-19T23:55:41.849Z,6.96
